sensor_id;sensor_type;location;lat;lon;timestamp;P1;durP1;ratioP1;P2;durP2;ratioP2
68765;SDS011;55756;45.582;11.484;2022-07-29T00:00:45;7.07;;;2.20;;
68765;SDS011;55756;45.582;11.484;2022-07-29T00:03:12;6.40;;;2.35;;
68765;SDS011;55756;45.582;11.484;2022-07-29T00:05:38;8.85;;;2.45;;
68765;SDS011;55756;45.582;11.484;2022-07-29T00:08:08;9.80;;;2.40;;
68765;SDS011;55756;45.582;11.484;2022-07-29T00:10:34;8.88;;;2.35;;
68765;SDS011;55756;45.582;11.484;2022-07-29T00:13:00;9.10;;;2.33;;
68765;SDS011;55756;45.582;11.484;2022-07-29T00:15:26;7.68;;;2.40;;
68765;SDS011;55756;45.582;11.484;2022-07-29T00:17:52;6.55;;;2.25;;
68765;SDS011;55756;45.582;11.484;2022-07-29T00:20:18;9.38;;;2.60;;
68765;SDS011;55756;45.582;11.484;2022-07-29T00:22:44;8.20;;;2.47;;
68765;SDS011;55756;45.582;11.484;2022-07-29T00:25:11;9.35;;;2.60;;
68765;SDS011;55756;45.582;11.484;2022-07-29T00:27:37;6.97;;;2.30;;
68765;SDS011;55756;45.582;11.484;2022-07-29T00:30:04;5.97;;;2.00;;
68765;SDS011;55756;45.582;11.484;2022-07-29T00:32:30;8.13;;;2.00;;
68765;SDS011;55756;45.582;11.484;2022-07-29T00:34:56;6.30;;;2.20;;
68765;SDS011;55756;45.582;11.484;2022-07-29T00:37:40;8.73;;;2.20;;
68765;SDS011;55756;45.582;11.484;2022-07-29T00:40:06;5.88;;;1.80;;
68765;SDS011;55756;45.582;11.484;2022-07-29T00:42:45;5.55;;;1.52;;
68765;SDS011;55756;45.582;11.484;2022-07-29T00:45:12;7.63;;;1.98;;
68765;SDS011;55756;45.582;11.484;2022-07-29T00:47:39;5.13;;;1.73;;
68765;SDS011;55756;45.582;11.484;2022-07-29T00:50:06;8.07;;;1.80;;
68765;SDS011;55756;45.582;11.484;2022-07-29T00:52:33;4.18;;;1.58;;
68765;SDS011;55756;45.582;11.484;2022-07-29T00:55:00;3.78;;;1.60;;
68765;SDS011;55756;45.582;11.484;2022-07-29T00:57:32;6.68;;;1.80;;
68765;SDS011;55756;45.582;11.484;2022-07-29T00:59:58;6.25;;;1.77;;
68765;SDS011;55756;45.582;11.484;2022-07-29T01:02:24;4.72;;;1.60;;
68765;SDS011;55756;45.582;11.484;2022-07-29T01:04:50;4.03;;;1.70;;
68765;SDS011;55756;45.582;11.484;2022-07-29T01:07:17;4.25;;;1.65;;
68765;SDS011;55756;45.582;11.484;2022-07-29T01:09:43;4.65;;;1.70;;
68765;SDS011;55756;45.582;11.484;2022-07-29T01:12:11;7.10;;;1.70;;
68765;SDS011;55756;45.582;11.484;2022-07-29T01:14:40;3.83;;;1.63;;
68765;SDS011;55756;45.582;11.484;2022-07-29T01:17:11;4.97;;;1.52;;
68765;SDS011;55756;45.582;11.484;2022-07-29T01:30:21;5.47;;;1.70;;
68765;SDS011;55756;45.582;11.484;2022-07-29T01:32:50;6.70;;;1.80;;
68765;SDS011;55756;45.582;11.484;2022-07-29T01:35:22;6.45;;;1.83;;
68765;SDS011;55756;45.582;11.484;2022-07-29T01:40:32;4.78;;;1.70;;
68765;SDS011;55756;45.582;11.484;2022-07-29T01:43:31;5.13;;;1.73;;
68765;SDS011;55756;45.582;11.484;2022-07-29T01:46:04;5.70;;;1.60;;
68765;SDS011;55756;45.582;11.484;2022-07-29T01:53:54;6.25;;;1.90;;
68765;SDS011;55756;45.582;11.484;2022-07-29T01:56:29;4.53;;;1.70;;
68765;SDS011;55756;45.582;11.484;2022-07-29T01:58:59;3.00;;;1.55;;
68765;SDS011;55756;45.582;11.484;2022-07-29T02:01:26;4.75;;;1.90;;
68765;SDS011;55756;45.582;11.484;2022-07-29T02:03:53;4.97;;;1.92;;
68765;SDS011;55756;45.582;11.484;2022-07-29T02:06:21;5.40;;;1.60;;
68765;SDS011;55756;45.582;11.484;2022-07-29T02:08:48;7.22;;;1.90;;
68765;SDS011;55756;45.582;11.484;2022-07-29T02:11:16;4.43;;;1.70;;
68765;SDS011;55756;45.582;11.484;2022-07-29T02:13:42;3.85;;;1.63;;
68765;SDS011;55756;45.582;11.484;2022-07-29T02:16:10;4.82;;;1.80;;
68765;SDS011;55756;45.582;11.484;2022-07-29T02:18:37;4.22;;;1.77;;
68765;SDS011;55756;45.582;11.484;2022-07-29T02:21:06;3.92;;;1.75;;
68765;SDS011;55756;45.582;11.484;2022-07-29T02:23:34;5.50;;;1.70;;
68765;SDS011;55756;45.582;11.484;2022-07-29T02:28:29;7.78;;;1.80;;
68765;SDS011;55756;45.582;11.484;2022-07-29T02:30:57;4.28;;;2.00;;
68765;SDS011;55756;45.582;11.484;2022-07-29T02:33:25;4.18;;;2.10;;
68765;SDS011;55756;45.582;11.484;2022-07-29T02:35:52;4.15;;;1.98;;
68765;SDS011;55756;45.582;11.484;2022-07-29T02:38:20;5.38;;;2.20;;
68765;SDS011;55756;45.582;11.484;2022-07-29T02:46:04;7.05;;;2.10;;
68765;SDS011;55756;45.582;11.484;2022-07-29T02:48:37;7.15;;;2.13;;
68765;SDS011;55756;45.582;11.484;2022-07-29T02:51:28;6.32;;;2.10;;
68765;SDS011;55756;45.582;11.484;2022-07-29T02:54:30;7.45;;;2.25;;
68765;SDS011;55756;45.582;11.484;2022-07-29T02:57:04;7.10;;;2.22;;
68765;SDS011;55756;45.582;11.484;2022-07-29T02:59:36;5.15;;;2.08;;
68765;SDS011;55756;45.582;11.484;2022-07-29T03:02:05;4.57;;;1.90;;
68765;SDS011;55756;45.582;11.484;2022-07-29T03:04:33;5.80;;;1.90;;
68765;SDS011;55756;45.582;11.484;2022-07-29T03:07:00;4.07;;;2.10;;
68765;SDS011;55756;45.582;11.484;2022-07-29T03:09:28;4.93;;;2.10;;
68765;SDS011;55756;45.582;11.484;2022-07-29T03:11:55;4.50;;;2.00;;
68765;SDS011;55756;45.582;11.484;2022-07-29T03:14:22;5.18;;;2.10;;
68765;SDS011;55756;45.582;11.484;2022-07-29T03:16:49;4.28;;;1.88;;
68765;SDS011;55756;45.582;11.484;2022-07-29T03:19:16;6.25;;;2.00;;
68765;SDS011;55756;45.582;11.484;2022-07-29T03:21:43;5.20;;;2.30;;
68765;SDS011;55756;45.582;11.484;2022-07-29T03:24:09;7.25;;;2.20;;
68765;SDS011;55756;45.582;11.484;2022-07-29T03:26:35;4.40;;;1.95;;
68765;SDS011;55756;45.582;11.484;2022-07-29T03:29:01;7.75;;;2.03;;
68765;SDS011;55756;45.582;11.484;2022-07-29T03:31:27;7.45;;;2.00;;
68765;SDS011;55756;45.582;11.484;2022-07-29T03:33:52;4.80;;;1.98;;
68765;SDS011;55756;45.582;11.484;2022-07-29T03:36:18;4.68;;;2.10;;
68765;SDS011;55756;45.582;11.484;2022-07-29T03:38:44;9.55;;;2.28;;
68765;SDS011;55756;45.582;11.484;2022-07-29T03:41:11;5.57;;;2.35;;
68765;SDS011;55756;45.582;11.484;2022-07-29T03:43:40;7.22;;;2.13;;
68765;SDS011;55756;45.582;11.484;2022-07-29T03:46:07;8.40;;;2.22;;
68765;SDS011;55756;45.582;11.484;2022-07-29T03:48:36;5.30;;;2.30;;
68765;SDS011;55756;45.582;11.484;2022-07-29T03:51:06;5.35;;;2.08;;
68765;SDS011;55756;45.582;11.484;2022-07-29T03:53:32;7.47;;;2.00;;
68765;SDS011;55756;45.582;11.484;2022-07-29T03:56:00;6.13;;;2.10;;
68765;SDS011;55756;45.582;11.484;2022-07-29T03:58:27;6.30;;;2.10;;
68765;SDS011;55756;45.582;11.484;2022-07-29T04:00:55;6.73;;;2.10;;
68765;SDS011;55756;45.582;11.484;2022-07-29T04:03:21;7.07;;;2.17;;
68765;SDS011;55756;45.582;11.484;2022-07-29T04:06:06;7.50;;;2.00;;
68765;SDS011;55756;45.582;11.484;2022-07-29T04:08:32;8.93;;;2.10;;
68765;SDS011;55756;45.582;11.484;2022-07-29T04:10:59;6.82;;;2.15;;
68765;SDS011;55756;45.582;11.484;2022-07-29T04:13:26;6.25;;;2.05;;
68765;SDS011;55756;45.582;11.484;2022-07-29T04:15:51;7.15;;;2.05;;
68765;SDS011;55756;45.582;11.484;2022-07-29T04:18:17;6.63;;;2.10;;
68765;SDS011;55756;45.582;11.484;2022-07-29T04:20:43;8.52;;;2.25;;
68765;SDS011;55756;45.582;11.484;2022-07-29T04:23:09;7.00;;;2.20;;
68765;SDS011;55756;45.582;11.484;2022-07-29T04:25:39;8.25;;;2.15;;
68765;SDS011;55756;45.582;11.484;2022-07-29T04:28:05;6.88;;;2.30;;
68765;SDS011;55756;45.582;11.484;2022-07-29T04:30:32;6.03;;;2.00;;
68765;SDS011;55756;45.582;11.484;2022-07-29T04:32:59;6.03;;;2.05;;
68765;SDS011;55756;45.582;11.484;2022-07-29T04:35:26;6.25;;;2.00;;
68765;SDS011;55756;45.582;11.484;2022-07-29T04:37:53;7.38;;;2.10;;
68765;SDS011;55756;45.582;11.484;2022-07-29T04:40:19;5.65;;;2.03;;
68765;SDS011;55756;45.582;11.484;2022-07-29T04:42:45;6.20;;;1.92;;
68765;SDS011;55756;45.582;11.484;2022-07-29T04:45:11;3.42;;;1.90;;
68765;SDS011;55756;45.582;11.484;2022-07-29T04:47:37;7.78;;;2.10;;
68765;SDS011;55756;45.582;11.484;2022-07-29T04:50:03;5.45;;;1.98;;
68765;SDS011;55756;45.582;11.484;2022-07-29T04:52:31;6.88;;;1.95;;
68765;SDS011;55756;45.582;11.484;2022-07-29T04:54:56;8.85;;;2.13;;
68765;SDS011;55756;45.582;11.484;2022-07-29T04:57:22;8.70;;;2.17;;
68765;SDS011;55756;45.582;11.484;2022-07-29T04:59:48;9.45;;;2.13;;
68765;SDS011;55756;45.582;11.484;2022-07-29T05:02:14;6.82;;;1.92;;
68765;SDS011;55756;45.582;11.484;2022-07-29T05:04:39;6.07;;;2.00;;
68765;SDS011;55756;45.582;11.484;2022-07-29T05:07:05;8.27;;;1.85;;
68765;SDS011;55756;45.582;11.484;2022-07-29T05:09:31;6.43;;;2.10;;
68765;SDS011;55756;45.582;11.484;2022-07-29T05:11:57;7.82;;;2.00;;
68765;SDS011;55756;45.582;11.484;2022-07-29T05:14:23;5.72;;;1.77;;
68765;SDS011;55756;45.582;11.484;2022-07-29T05:16:49;6.22;;;1.70;;
68765;SDS011;55756;45.582;11.484;2022-07-29T05:19:16;5.78;;;2.00;;
68765;SDS011;55756;45.582;11.484;2022-07-29T05:21:42;4.20;;;2.00;;
68765;SDS011;55756;45.582;11.484;2022-07-29T05:24:09;6.47;;;1.88;;
68765;SDS011;55756;45.582;11.484;2022-07-29T05:26:35;5.43;;;1.90;;
68765;SDS011;55756;45.582;11.484;2022-07-29T05:29:01;4.68;;;1.83;;
68765;SDS011;55756;45.582;11.484;2022-07-29T05:31:27;6.53;;;1.95;;
68765;SDS011;55756;45.582;11.484;2022-07-29T05:33:53;4.97;;;1.92;;
68765;SDS011;55756;45.582;11.484;2022-07-29T05:36:19;8.10;;;2.10;;
68765;SDS011;55756;45.582;11.484;2022-07-29T05:38:44;6.82;;;2.05;;
68765;SDS011;55756;45.582;11.484;2022-07-29T05:41:10;5.65;;;2.33;;
68765;SDS011;55756;45.582;11.484;2022-07-29T05:43:36;7.00;;;2.40;;
68765;SDS011;55756;45.582;11.484;2022-07-29T05:46:02;4.82;;;2.10;;
68765;SDS011;55756;45.582;11.484;2022-07-29T05:48:28;7.43;;;2.20;;
68765;SDS011;55756;45.582;11.484;2022-07-29T05:50:54;4.38;;;1.83;;
68765;SDS011;55756;45.582;11.484;2022-07-29T05:53:20;6.15;;;1.90;;
68765;SDS011;55756;45.582;11.484;2022-07-29T05:55:46;4.50;;;1.90;;
68765;SDS011;55756;45.582;11.484;2022-07-29T05:58:13;6.43;;;1.85;;
68765;SDS011;55756;45.582;11.484;2022-07-29T06:00:38;7.40;;;1.90;;
68765;SDS011;55756;45.582;11.484;2022-07-29T06:03:04;5.30;;;1.80;;
68765;SDS011;55756;45.582;11.484;2022-07-29T06:05:30;5.15;;;1.90;;
68765;SDS011;55756;45.582;11.484;2022-07-29T06:07:56;5.05;;;1.80;;
68765;SDS011;55756;45.582;11.484;2022-07-29T06:10:22;5.90;;;1.85;;
68765;SDS011;55756;45.582;11.484;2022-07-29T06:12:48;6.80;;;1.60;;
68765;SDS011;55756;45.582;11.484;2022-07-29T06:15:14;5.68;;;1.80;;
68765;SDS011;55756;45.582;11.484;2022-07-29T06:17:40;6.10;;;2.00;;
68765;SDS011;55756;45.582;11.484;2022-07-29T06:20:06;7.20;;;1.85;;
68765;SDS011;55756;45.582;11.484;2022-07-29T06:22:32;4.68;;;1.60;;
68765;SDS011;55756;45.582;11.484;2022-07-29T06:24:58;7.18;;;1.75;;
68765;SDS011;55756;45.582;11.484;2022-07-29T06:27:25;5.88;;;2.20;;
68765;SDS011;55756;45.582;11.484;2022-07-29T06:29:51;5.65;;;2.20;;
68765;SDS011;55756;45.582;11.484;2022-07-29T06:32:17;4.15;;;1.80;;
68765;SDS011;55756;45.582;11.484;2022-07-29T06:34:44;6.13;;;1.90;;
68765;SDS011;55756;45.582;11.484;2022-07-29T06:37:09;5.30;;;2.35;;
68765;SDS011;55756;45.582;11.484;2022-07-29T06:39:35;4.50;;;2.10;;
68765;SDS011;55756;45.582;11.484;2022-07-29T06:42:03;5.35;;;1.80;;
68765;SDS011;55756;45.582;11.484;2022-07-29T06:44:30;8.13;;;2.38;;
68765;SDS011;55756;45.582;11.484;2022-07-29T06:46:56;7.60;;;2.30;;
68765;SDS011;55756;45.582;11.484;2022-07-29T06:49:22;5.45;;;2.33;;
68765;SDS011;55756;45.582;11.484;2022-07-29T06:51:49;5.05;;;2.40;;
68765;SDS011;55756;45.582;11.484;2022-07-29T06:54:15;5.97;;;2.30;;
68765;SDS011;55756;45.582;11.484;2022-07-29T06:56:41;4.15;;;2.10;;
68765;SDS011;55756;45.582;11.484;2022-07-29T06:59:08;5.68;;;2.20;;
68765;SDS011;55756;45.582;11.484;2022-07-29T07:01:36;3.95;;;1.98;;
68765;SDS011;55756;45.582;11.484;2022-07-29T07:04:03;3.35;;;1.83;;
68765;SDS011;55756;45.582;11.484;2022-07-29T07:06:29;5.63;;;2.30;;
68765;SDS011;55756;45.582;11.484;2022-07-29T07:08:54;4.38;;;2.20;;
68765;SDS011;55756;45.582;11.484;2022-07-29T07:11:20;6.18;;;2.20;;
68765;SDS011;55756;45.582;11.484;2022-07-29T07:13:46;4.80;;;2.22;;
68765;SDS011;55756;45.582;11.484;2022-07-29T07:16:12;8.27;;;2.20;;
68765;SDS011;55756;45.582;11.484;2022-07-29T07:18:38;6.10;;;2.22;;
68765;SDS011;55756;45.582;11.484;2022-07-29T07:21:03;5.30;;;2.25;;
68765;SDS011;55756;45.582;11.484;2022-07-29T07:23:30;4.72;;;2.28;;
68765;SDS011;55756;45.582;11.484;2022-07-29T07:25:56;4.10;;;2.20;;
68765;SDS011;55756;45.582;11.484;2022-07-29T07:28:22;5.53;;;2.00;;
68765;SDS011;55756;45.582;11.484;2022-07-29T07:30:48;6.32;;;1.80;;
68765;SDS011;55756;45.582;11.484;2022-07-29T07:33:14;5.00;;;1.80;;
68765;SDS011;55756;45.582;11.484;2022-07-29T07:35:40;5.97;;;1.77;;
68765;SDS011;55756;45.582;11.484;2022-07-29T07:38:07;6.30;;;1.90;;
68765;SDS011;55756;45.582;11.484;2022-07-29T07:40:32;2.88;;;1.83;;
68765;SDS011;55756;45.582;11.484;2022-07-29T07:42:58;4.03;;;2.03;;
68765;SDS011;55756;45.582;11.484;2022-07-29T07:45:24;2.88;;;1.90;;
68765;SDS011;55756;45.582;11.484;2022-07-29T07:47:51;4.97;;;2.40;;
68765;SDS011;55756;45.582;11.484;2022-07-29T07:50:17;6.30;;;2.40;;
68765;SDS011;55756;45.582;11.484;2022-07-29T07:52:47;4.53;;;2.28;;
68765;SDS011;55756;45.582;11.484;2022-07-29T07:55:13;5.65;;;2.35;;
68765;SDS011;55756;45.582;11.484;2022-07-29T07:57:39;7.07;;;2.70;;
68765;SDS011;55756;45.582;11.484;2022-07-29T08:00:05;7.78;;;2.63;;
68765;SDS011;55756;45.582;11.484;2022-07-29T08:02:37;7.57;;;2.60;;
68765;SDS011;55756;45.582;11.484;2022-07-29T08:05:06;6.00;;;2.47;;
68765;SDS011;55756;45.582;11.484;2022-07-29T08:07:33;5.55;;;2.40;;
68765;SDS011;55756;45.582;11.484;2022-07-29T08:09:59;4.55;;;2.20;;
68765;SDS011;55756;45.582;11.484;2022-07-29T08:12:24;5.45;;;2.47;;
68765;SDS011;55756;45.582;11.484;2022-07-29T08:14:50;4.00;;;2.17;;
68765;SDS011;55756;45.582;11.484;2022-07-29T08:17:16;4.13;;;2.22;;
68765;SDS011;55756;45.582;11.484;2022-07-29T08:19:42;4.90;;;2.10;;
68765;SDS011;55756;45.582;11.484;2022-07-29T08:22:08;4.78;;;2.17;;
68765;SDS011;55756;45.582;11.484;2022-07-29T08:24:33;7.27;;;2.40;;
68765;SDS011;55756;45.582;11.484;2022-07-29T08:27:17;4.40;;;2.22;;
68765;SDS011;55756;45.582;11.484;2022-07-29T08:29:45;8.15;;;2.80;;
68765;SDS011;55756;45.582;11.484;2022-07-29T08:32:11;4.27;;;2.30;;
68765;SDS011;55756;45.582;11.484;2022-07-29T08:34:37;5.78;;;2.22;;
68765;SDS011;55756;45.582;11.484;2022-07-29T08:37:02;6.05;;;2.13;;
68765;SDS011;55756;45.582;11.484;2022-07-29T08:39:28;5.18;;;2.00;;
68765;SDS011;55756;45.582;11.484;2022-07-29T08:41:54;4.22;;;1.90;;
68765;SDS011;55756;45.582;11.484;2022-07-29T08:44:20;5.10;;;1.92;;
68765;SDS011;55756;45.582;11.484;2022-07-29T08:46:47;5.50;;;1.90;;
68765;SDS011;55756;45.582;11.484;2022-07-29T08:49:14;5.93;;;1.80;;
68765;SDS011;55756;45.582;11.484;2022-07-29T08:51:41;4.13;;;1.80;;
68765;SDS011;55756;45.582;11.484;2022-07-29T08:54:08;4.80;;;1.70;;
68765;SDS011;55756;45.582;11.484;2022-07-29T08:56:35;5.32;;;2.00;;
68765;SDS011;55756;45.582;11.484;2022-07-29T08:59:04;8.52;;;2.00;;
68765;SDS011;55756;45.582;11.484;2022-07-29T09:01:33;4.15;;;1.85;;
68765;SDS011;55756;45.582;11.484;2022-07-29T09:04:01;4.95;;;1.90;;
68765;SDS011;55756;45.582;11.484;2022-07-29T09:06:30;4.95;;;1.83;;
68765;SDS011;55756;45.582;11.484;2022-07-29T09:08:59;4.85;;;1.80;;
68765;SDS011;55756;45.582;11.484;2022-07-29T09:11:26;7.43;;;2.07;;
68765;SDS011;55756;45.582;11.484;2022-07-29T09:13:53;4.65;;;1.90;;
68765;SDS011;55756;45.582;11.484;2022-07-29T09:16:20;5.70;;;2.20;;
68765;SDS011;55756;45.582;11.484;2022-07-29T09:18:46;4.90;;;2.03;;
68765;SDS011;55756;45.582;11.484;2022-07-29T09:21:13;5.50;;;2.22;;
68765;SDS011;55756;45.582;11.484;2022-07-29T09:26:29;8.00;;;2.10;;
68765;SDS011;55756;45.582;11.484;2022-07-29T09:28:58;4.18;;;1.90;;
68765;SDS011;55756;45.582;11.484;2022-07-29T09:31:35;7.57;;;2.10;;
68765;SDS011;55756;45.582;11.484;2022-07-29T09:36:28;8.63;;;2.40;;
68765;SDS011;55756;45.582;11.484;2022-07-29T09:39:00;6.75;;;2.42;;
68765;SDS011;55756;45.582;11.484;2022-07-29T09:41:28;7.32;;;2.45;;
68765;SDS011;55756;45.582;11.484;2022-07-29T09:43:58;5.30;;;2.30;;
68765;SDS011;55756;45.582;11.484;2022-07-29T09:46:25;6.38;;;2.05;;
68765;SDS011;55756;45.582;11.484;2022-07-29T09:51:32;5.50;;;2.30;;
68765;SDS011;55756;45.582;11.484;2022-07-29T09:53:58;7.07;;;2.30;;
68765;SDS011;55756;45.582;11.484;2022-07-29T09:56:41;6.80;;;2.70;;
68765;SDS011;55756;45.582;11.484;2022-07-29T09:59:08;9.40;;;2.58;;
68765;SDS011;55756;45.582;11.484;2022-07-29T10:01:36;6.78;;;2.40;;
68765;SDS011;55756;45.582;11.484;2022-07-29T10:04:02;10.77;;;2.30;;
68765;SDS011;55756;45.582;11.484;2022-07-29T10:06:29;9.35;;;2.72;;
68765;SDS011;55756;45.582;11.484;2022-07-29T10:08:54;5.35;;;2.40;;
68765;SDS011;55756;45.582;11.484;2022-07-29T10:11:31;9.27;;;2.63;;
68765;SDS011;55756;45.582;11.484;2022-07-29T10:13:57;9.52;;;3.15;;
68765;SDS011;55756;45.582;11.484;2022-07-29T10:16:23;8.52;;;2.90;;
68765;SDS011;55756;45.582;11.484;2022-07-29T10:18:50;6.70;;;3.08;;
68765;SDS011;55756;45.582;11.484;2022-07-29T10:21:16;6.57;;;2.70;;
68765;SDS011;55756;45.582;11.484;2022-07-29T10:23:44;8.02;;;2.70;;
68765;SDS011;55756;45.582;11.484;2022-07-29T10:26:10;8.52;;;2.58;;
68765;SDS011;55756;45.582;11.484;2022-07-29T10:28:36;6.40;;;3.00;;
68765;SDS011;55756;45.582;11.484;2022-07-29T10:31:03;5.95;;;2.65;;
68765;SDS011;55756;45.582;11.484;2022-07-29T10:44:33;8.10;;;2.90;;
68765;SDS011;55756;45.582;11.484;2022-07-29T10:46:59;10.30;;;2.70;;
68765;SDS011;55756;45.582;11.484;2022-07-29T10:49:26;10.35;;;3.03;;
68765;SDS011;55756;45.582;11.484;2022-07-29T10:57:13;7.25;;;2.80;;
68765;SDS011;55756;45.582;11.484;2022-07-29T11:05:06;7.90;;;2.90;;
68765;SDS011;55756;45.582;11.484;2022-07-29T11:10:37;8.38;;;2.67;;
68765;SDS011;55756;45.582;11.484;2022-07-29T11:13:03;7.25;;;2.70;;
68765;SDS011;55756;45.582;11.484;2022-07-29T11:15:29;6.30;;;2.70;;
68765;SDS011;55756;45.582;11.484;2022-07-29T11:18:19;9.30;;;3.05;;
68765;SDS011;55756;45.582;11.484;2022-07-29T11:20:49;8.85;;;3.17;;
68765;SDS011;55756;45.582;11.484;2022-07-29T11:23:23;6.93;;;3.00;;
68765;SDS011;55756;45.582;11.484;2022-07-29T11:39:32;6.93;;;2.80;;
68765;SDS011;55756;45.582;11.484;2022-07-29T11:47:38;8.35;;;3.00;;
68765;SDS011;55756;45.582;11.484;2022-07-29T11:50:10;8.35;;;2.90;;
68765;SDS011;55756;45.582;11.484;2022-07-29T11:52:39;9.07;;;3.15;;
68765;SDS011;55756;45.582;11.484;2022-07-29T11:55:11;7.65;;;3.00;;
68765;SDS011;55756;45.582;11.484;2022-07-29T11:57:46;8.82;;;3.22;;
68765;SDS011;55756;45.582;11.484;2022-07-29T12:00:20;7.45;;;2.92;;
68765;SDS011;55756;45.582;11.484;2022-07-29T12:02:48;9.52;;;3.00;;
68765;SDS011;55756;45.582;11.484;2022-07-29T12:05:14;6.53;;;2.88;;
68765;SDS011;55756;45.582;11.484;2022-07-29T12:07:40;10.27;;;3.25;;
68765;SDS011;55756;45.582;11.484;2022-07-29T12:10:06;10.13;;;3.15;;
68765;SDS011;55756;45.582;11.484;2022-07-29T12:12:33;8.27;;;2.70;;
68765;SDS011;55756;45.582;11.484;2022-07-29T12:15:13;6.70;;;2.90;;
68765;SDS011;55756;45.582;11.484;2022-07-29T12:17:40;7.68;;;3.00;;
68765;SDS011;55756;45.582;11.484;2022-07-29T12:20:07;8.40;;;2.90;;
68765;SDS011;55756;45.582;11.484;2022-07-29T12:22:37;6.38;;;3.00;;
68765;SDS011;55756;45.582;11.484;2022-07-29T12:25:12;8.00;;;3.20;;
68765;SDS011;55756;45.582;11.484;2022-07-29T12:27:40;7.95;;;2.97;;
68765;SDS011;55756;45.582;11.484;2022-07-29T12:32:36;8.20;;;2.90;;
68765;SDS011;55756;45.582;11.484;2022-07-29T12:35:04;7.10;;;2.92;;
68765;SDS011;55756;45.582;11.484;2022-07-29T12:37:33;6.63;;;2.97;;
68765;SDS011;55756;45.582;11.484;2022-07-29T12:40:01;6.78;;;3.00;;
68765;SDS011;55756;45.582;11.484;2022-07-29T12:42:31;7.03;;;2.80;;
68765;SDS011;55756;45.582;11.484;2022-07-29T12:44:57;9.90;;;3.15;;
68765;SDS011;55756;45.582;11.484;2022-07-29T12:47:23;9.30;;;3.05;;
68765;SDS011;55756;45.582;11.484;2022-07-29T12:49:49;7.40;;;2.90;;
68765;SDS011;55756;45.582;11.484;2022-07-29T12:52:26;10.52;;;3.20;;
68765;SDS011;55756;45.582;11.484;2022-07-29T12:54:52;7.28;;;2.92;;
68765;SDS011;55756;45.582;11.484;2022-07-29T12:57:18;5.53;;;2.70;;
68765;SDS011;55756;45.582;11.484;2022-07-29T12:59:44;11.75;;;3.20;;
68765;SDS011;55756;45.582;11.484;2022-07-29T13:02:22;10.20;;;3.20;;
68765;SDS011;55756;45.582;11.484;2022-07-29T13:04:58;7.30;;;2.90;;
68765;SDS011;55756;45.582;11.484;2022-07-29T13:07:29;7.05;;;3.03;;
68765;SDS011;55756;45.582;11.484;2022-07-29T13:15:34;7.90;;;2.80;;
68765;SDS011;55756;45.582;11.484;2022-07-29T13:18:04;5.57;;;2.80;;
68765;SDS011;55756;45.582;11.484;2022-07-29T13:20:50;10.32;;;2.90;;
68765;SDS011;55756;45.582;11.484;2022-07-29T13:23:16;6.75;;;2.72;;
68765;SDS011;55756;45.582;11.484;2022-07-29T13:25:42;6.70;;;2.90;;
68765;SDS011;55756;45.582;11.484;2022-07-29T13:28:08;6.80;;;2.78;;
68765;SDS011;55756;45.582;11.484;2022-07-29T13:30:33;8.15;;;2.80;;
68765;SDS011;55756;45.582;11.484;2022-07-29T13:32:59;7.82;;;2.80;;
68765;SDS011;55756;45.582;11.484;2022-07-29T13:35:25;7.80;;;2.80;;
68765;SDS011;55756;45.582;11.484;2022-07-29T13:37:51;6.43;;;2.75;;
68765;SDS011;55756;45.582;11.484;2022-07-29T13:40:17;6.63;;;2.85;;
68765;SDS011;55756;45.582;11.484;2022-07-29T13:42:43;9.55;;;2.70;;
68765;SDS011;55756;45.582;11.484;2022-07-29T13:45:09;6.95;;;2.80;;
68765;SDS011;55756;45.582;11.484;2022-07-29T13:47:36;7.47;;;2.90;;
68765;SDS011;55756;45.582;11.484;2022-07-29T13:50:02;10.65;;;2.80;;
68765;SDS011;55756;45.582;11.484;2022-07-29T13:52:29;7.43;;;2.80;;
68765;SDS011;55756;45.582;11.484;2022-07-29T13:54:55;6.80;;;2.78;;
68765;SDS011;55756;45.582;11.484;2022-07-29T13:57:21;7.82;;;2.60;;
68765;SDS011;55756;45.582;11.484;2022-07-29T13:59:47;7.95;;;2.90;;
68765;SDS011;55756;45.582;11.484;2022-07-29T14:02:13;7.50;;;2.97;;
68765;SDS011;55756;45.582;11.484;2022-07-29T14:04:39;8.23;;;2.88;;
68765;SDS011;55756;45.582;11.484;2022-07-29T14:07:05;8.55;;;2.80;;
68765;SDS011;55756;45.582;11.484;2022-07-29T14:09:31;7.10;;;2.53;;
68765;SDS011;55756;45.582;11.484;2022-07-29T14:11:57;7.40;;;2.60;;
68765;SDS011;55756;45.582;11.484;2022-07-29T14:14:23;10.05;;;2.92;;
68765;SDS011;55756;45.582;11.484;2022-07-29T14:16:49;6.97;;;2.90;;
68765;SDS011;55756;45.582;11.484;2022-07-29T14:19:14;8.82;;;2.97;;
68765;SDS011;55756;45.582;11.484;2022-07-29T14:21:40;7.72;;;2.75;;
68765;SDS011;55756;45.582;11.484;2022-07-29T14:24:06;6.70;;;2.72;;
68765;SDS011;55756;45.582;11.484;2022-07-29T14:26:32;6.95;;;3.05;;
68765;SDS011;55756;45.582;11.484;2022-07-29T14:28:58;7.65;;;2.70;;
68765;SDS011;55756;45.582;11.484;2022-07-29T14:31:24;7.50;;;3.00;;
68765;SDS011;55756;45.582;11.484;2022-07-29T14:33:49;12.60;;;3.15;;
68765;SDS011;55756;45.582;11.484;2022-07-29T14:36:15;6.97;;;3.10;;
68765;SDS011;55756;45.582;11.484;2022-07-29T14:38:41;8.63;;;3.00;;
68765;SDS011;55756;45.582;11.484;2022-07-29T14:41:07;11.63;;;3.20;;
68765;SDS011;55756;45.582;11.484;2022-07-29T14:43:33;9.55;;;3.08;;
68765;SDS011;55756;45.582;11.484;2022-07-29T14:46:00;7.43;;;3.20;;
68765;SDS011;55756;45.582;11.484;2022-07-29T14:48:26;7.72;;;3.10;;
68765;SDS011;55756;45.582;11.484;2022-07-29T14:50:52;6.90;;;2.92;;
68765;SDS011;55756;45.582;11.484;2022-07-29T14:53:21;6.95;;;3.08;;
68765;SDS011;55756;45.582;11.484;2022-07-29T14:55:47;11.85;;;3.13;;
68765;SDS011;55756;45.582;11.484;2022-07-29T14:58:14;6.73;;;3.00;;
68765;SDS011;55756;45.582;11.484;2022-07-29T15:00:40;7.60;;;3.00;;
68765;SDS011;55756;45.582;11.484;2022-07-29T15:03:06;10.20;;;2.92;;
68765;SDS011;55756;45.582;11.484;2022-07-29T15:05:35;7.95;;;2.90;;
68765;SDS011;55756;45.582;11.484;2022-07-29T15:08:01;8.98;;;3.00;;
68765;SDS011;55756;45.582;11.484;2022-07-29T15:10:27;7.10;;;3.13;;
68765;SDS011;55756;45.582;11.484;2022-07-29T15:12:54;8.57;;;3.15;;
68765;SDS011;55756;45.582;11.484;2022-07-29T15:15:20;8.27;;;3.10;;
68765;SDS011;55756;45.582;11.484;2022-07-29T15:17:46;8.77;;;3.20;;
68765;SDS011;55756;45.582;11.484;2022-07-29T15:20:13;7.93;;;3.17;;
68765;SDS011;55756;45.582;11.484;2022-07-29T15:22:38;9.25;;;2.90;;
68765;SDS011;55756;45.582;11.484;2022-07-29T15:25:06;7.43;;;3.20;;
68765;SDS011;55756;45.582;11.484;2022-07-29T15:27:32;10.35;;;2.78;;
68765;SDS011;55756;45.582;11.484;2022-07-29T15:29:58;10.85;;;3.10;;
68765;SDS011;55756;45.582;11.484;2022-07-29T15:32:24;7.95;;;3.05;;
68765;SDS011;55756;45.582;11.484;2022-07-29T15:34:50;7.97;;;3.05;;
68765;SDS011;55756;45.582;11.484;2022-07-29T15:37:16;9.98;;;3.00;;
68765;SDS011;55756;45.582;11.484;2022-07-29T15:39:45;10.90;;;3.00;;
68765;SDS011;55756;45.582;11.484;2022-07-29T15:42:11;8.90;;;2.78;;
68765;SDS011;55756;45.582;11.484;2022-07-29T15:44:36;8.13;;;3.30;;
68765;SDS011;55756;45.582;11.484;2022-07-29T15:47:02;7.82;;;2.97;;
68765;SDS011;55756;45.582;11.484;2022-07-29T15:49:35;8.23;;;3.08;;
68765;SDS011;55756;45.582;11.484;2022-07-29T15:52:03;8.93;;;3.00;;
68765;SDS011;55756;45.582;11.484;2022-07-29T15:54:31;9.80;;;2.78;;
68765;SDS011;55756;45.582;11.484;2022-07-29T15:56:58;6.97;;;3.00;;
68765;SDS011;55756;45.582;11.484;2022-07-29T15:59:24;8.98;;;3.03;;
68765;SDS011;55756;45.582;11.484;2022-07-29T16:01:51;10.73;;;3.03;;